createdAt,value
2023-05-24T00:00:53.796Z,99655.2
2023-05-24T00:01:53.800Z,99654.8
2023-05-24T00:02:53.892Z,99653.5
2023-05-24T00:03:54.567Z,99650.19
2023-05-24T00:04:53.904Z,99648.77
2023-05-24T00:05:53.918Z,99651.25
2023-05-24T00:06:53.862Z,99651.38
2023-05-24T00:07:53.880Z,99649.47
2023-05-24T00:08:54.510Z,99647.84
2023-05-24T00:09:53.945Z,99644.44
2023-05-24T00:10:53.977Z,99641.67
2023-05-24T00:11:53.926Z,99643.53
2023-05-24T00:12:53.944Z,99640.97
2023-05-24T00:13:54.277Z,99637.38
2023-05-24T00:14:54.231Z,99636.32
2023-05-24T00:15:54.200Z,99635.02
2023-05-24T00:16:54.117Z,99636.48
2023-05-24T00:17:54.061Z,99632.08
2023-05-24T00:18:54.045Z,99629.45
2023-05-24T00:19:54.160Z,99627.48
2023-05-24T00:20:54.090Z,99627.23
2023-05-24T00:21:54.041Z,99631.84
2023-05-24T00:22:54.589Z,99628.88
2023-05-24T00:23:54.579Z,99629.51
2023-05-24T00:24:54.577Z,99624.54
2023-05-24T00:25:54.602Z,99627.19
2023-05-24T00:26:54.620Z,99625.65
2023-05-24T00:27:54.648Z,99624.06
2023-05-24T00:28:54.658Z,99626.48
2023-05-24T00:29:54.873Z,99623.27
2023-05-24T00:30:54.676Z,99621.2
2023-05-24T00:31:54.764Z,99622.89
2023-05-24T00:32:54.718Z,99622.84
2023-05-24T00:33:54.731Z,99617.64
2023-05-24T00:34:54.715Z,99620.23
2023-05-24T00:35:55.044Z,99618.98
2023-05-24T00:36:54.750Z,99611.41
2023-05-24T00:37:54.758Z,99616.35
2023-05-24T00:38:54.791Z,99616.33
2023-05-24T00:39:54.814Z,99615.17
2023-05-24T00:40:55.248Z,99615.03
2023-05-24T00:41:54.844Z,99614.92
2023-05-24T00:42:54.832Z,99617.77
2023-05-24T00:43:54.866Z,99618.57
2023-05-24T00:44:54.868Z,99620.97
2023-05-24T00:46:58.476Z,99614.22
2023-05-24T00:47:59.200Z,99617.58
2023-05-24T00:48:59.011Z,99614.95
2023-05-24T00:49:58.864Z,99613.73
2023-05-24T00:50:58.660Z,99609.96
2023-05-24T00:51:58.967Z,99608.22
2023-05-24T00:53:00.832Z,99607.19
2023-05-24T00:53:58.766Z,99607.37
2023-05-24T00:54:58.774Z,99607.2
2023-05-24T00:55:58.743Z,99605.11
2023-05-24T00:56:58.951Z,99604.38
2023-05-24T00:57:58.918Z,99605.73
2023-05-24T00:58:58.779Z,99604.41
2023-05-24T00:59:59.459Z,99604.72
2023-05-24T01:00:59.662Z,99605.44
2023-05-24T01:01:58.880Z,99605.46
2023-05-24T01:02:59.006Z,99603.94
2023-05-24T01:03:58.838Z,99610.3
2023-05-24T01:04:58.784Z,99609.98
2023-05-24T01:06:06.227Z,99608.95
2023-05-24T01:07:06.207Z,99610.31
2023-05-24T01:16:22.449Z,99611.73
2023-05-24T01:18:26.290Z,99616.69
2023-05-24T01:20:29.856Z,99609.45
2023-05-24T01:24:43.955Z,99606.92
2023-05-24T01:27:50.870Z,99607.45
2023-05-24T01:28:50.869Z,99608.97
2023-05-24T01:29:50.641Z,99607.78
2023-05-24T01:30:50.872Z,99610.78
2023-05-24T01:31:50.581Z,99611.88
2023-05-24T01:32:50.946Z,99608.48
2023-05-24T01:33:50.509Z,99610.44
2023-05-24T01:34:50.562Z,99608.62
2023-05-24T01:35:50.539Z,99610
2023-05-24T01:36:50.591Z,99610.87
2023-05-24T01:37:50.547Z,99612.69
2023-05-24T01:38:51.546Z,99610.6
2023-05-24T01:39:50.826Z,99612.69
2023-05-24T01:40:52.862Z,99612.61
2023-05-24T01:41:54.087Z,99612.92
2023-05-24T01:51:09.546Z,99614.08
2023-05-24T01:52:12.882Z,99613.77
2023-05-24T01:53:12.962Z,99617.83
2023-05-24T01:54:10.076Z,99610.06
2023-05-24T01:55:09.467Z,99614.12
2023-05-24T01:56:11.150Z,99614.95
2023-05-24T01:57:10.268Z,99616.59
2023-05-24T01:58:09.875Z,99614.47
2023-05-24T01:59:09.680Z,99618.22
2023-05-24T02:00:10.241Z,99618.76
2023-05-24T02:01:09.914Z,99621.16
2023-05-24T02:02:10.184Z,99619.45
2023-05-24T02:03:09.965Z,99619.39
2023-05-24T02:04:09.410Z,99621.82
2023-05-24T02:05:09.940Z,99623.33
2023-05-24T02:06:09.414Z,99618.47
2023-05-24T02:07:09.435Z,99623.7
2023-05-24T02:08:09.718Z,99619.94
2023-05-24T02:09:09.439Z,99623.53
2023-05-24T02:10:09.874Z,99621.45
2023-05-24T02:11:09.536Z,99623.23
2023-05-24T02:12:10.287Z,99623.18
2023-05-24T02:13:09.534Z,99626.33
2023-05-24T02:14:09.541Z,99623.66
2023-05-24T02:15:10.319Z,99626.26
2023-05-24T02:16:09.664Z,99624.15
2023-05-24T02:17:09.821Z,99624.17
2023-05-24T02:18:09.650Z,99625.14
2023-05-24T02:19:09.807Z,99627.33
2023-05-24T02:20:10.301Z,99629.19
2023-05-24T02:21:09.637Z,99626.84
2023-05-24T02:22:09.633Z,99630.34
2023-05-24T02:23:09.861Z,99627.98
2023-05-24T02:24:09.733Z,99630.27
2023-05-24T02:25:09.708Z,99627.05
2023-05-24T02:26:09.738Z,99630.11
2023-05-24T02:27:09.720Z,99624.72
2023-05-24T02:28:09.750Z,99626.09
2023-05-24T02:29:09.814Z,99624.93
2023-05-24T02:30:10.293Z,99624.24
2023-05-24T02:31:10.245Z,99625.97
2023-05-24T02:32:09.794Z,99626.66
2023-05-24T02:33:10.507Z,99623.53
2023-05-24T02:34:10.077Z,99627.35
2023-05-24T02:35:09.880Z,99629.42
2023-05-24T02:36:09.888Z,99632.15
2023-05-24T02:37:10.261Z,99629.23
2023-05-24T02:38:10.605Z,99629.62
2023-05-24T02:39:10.638Z,99627.98
2023-05-24T02:40:11.113Z,99627.3
2023-05-24T02:41:10.643Z,99628.59
2023-05-24T02:42:10.643Z,99623.72
2023-05-24T02:43:10.652Z,99626.55
2023-05-24T02:44:10.735Z,99629.23
2023-05-24T02:45:11.108Z,99629.81
2023-05-24T02:46:10.794Z,99633.05
2023-05-24T02:47:10.779Z,99630.34
2023-05-24T02:48:10.740Z,99634.04
2023-05-24T02:49:10.787Z,99633.67
2023-05-24T02:50:10.860Z,99639.64
2023-05-24T02:51:10.781Z,99632.51
2023-05-24T02:52:10.975Z,99636.66
2023-05-24T02:53:10.820Z,99637.8
2023-05-24T02:54:10.909Z,99639.75
2023-05-24T02:55:11.331Z,99636.35
2023-05-24T02:56:11.347Z,99636.19
2023-05-24T02:57:11.373Z,99635.65
2023-05-24T02:58:11.374Z,99635.66
2023-05-24T02:59:11.418Z,99632.43
2023-05-24T03:00:11.943Z,99634.11
2023-05-24T03:01:11.598Z,99634.05
2023-05-24T03:02:11.442Z,99635.73
2023-05-24T03:03:11.536Z,99633.61
2023-05-24T03:04:11.581Z,99634.64
2023-05-24T03:05:11.505Z,99633.96
2023-05-24T03:06:11.887Z,99636.99
2023-05-24T03:07:11.548Z,99635.57
2023-05-24T03:08:11.613Z,99635.28
2023-05-24T03:09:11.588Z,99637.77
2023-05-24T03:10:13.195Z,99640.11
2023-05-24T03:11:11.622Z,99638.89
2023-05-24T03:12:11.616Z,99643.06
2023-05-24T03:13:11.626Z,99642.91
2023-05-24T03:14:11.649Z,99646.52
2023-05-24T03:15:11.730Z,99644.77
2023-05-24T03:16:11.764Z,99646.3
2023-05-24T03:17:11.678Z,99646.56
2023-05-24T03:18:11.679Z,99643.38
2023-05-24T03:19:11.744Z,99647.27
2023-05-24T03:20:12.851Z,99646.89
2023-05-24T03:21:11.993Z,99646.02
2023-05-24T03:22:11.765Z,99646.12
2023-05-24T03:23:11.782Z,99644.58
2023-05-24T03:24:11.799Z,99645.11
2023-05-24T03:25:11.814Z,99646.08
2023-05-24T03:26:11.820Z,99648.73
2023-05-24T03:27:11.850Z,99651.41
2023-05-24T03:28:11.837Z,99651.96
2023-05-24T03:29:12.043Z,99651.08
2023-05-24T03:30:12.507Z,99651.05
2023-05-24T03:31:12.204Z,99652.2
2023-05-24T03:32:11.889Z,99652.69
2023-05-24T03:33:11.898Z,99653.39
2023-05-24T03:34:11.955Z,99654.59
2023-05-24T03:35:12.004Z,99654.08
2023-05-24T03:36:11.983Z,99655.39
2023-05-24T03:37:11.986Z,99656.9
2023-05-24T03:38:11.994Z,99655.88
2023-05-24T03:39:12.035Z,99654.73
2023-05-24T03:40:12.227Z,99657.27
2023-05-24T03:41:12.046Z,99654.62
2023-05-24T03:42:12.047Z,99659.5
2023-05-24T03:43:12.120Z,99657.88
2023-05-24T03:44:12.540Z,99659.66
2023-05-24T03:45:12.096Z,99662.41
2023-05-24T03:46:12.218Z,99679.59
2023-05-24T03:47:12.353Z,99683.11
2023-05-24T03:48:12.769Z,99683.61
2023-05-24T03:49:12.187Z,99687.83
2023-05-24T03:50:12.196Z,99686.73
2023-05-24T03:51:12.415Z,99685.62
2023-05-24T03:52:12.378Z,99686.73
2023-05-24T03:53:12.259Z,99684.77
2023-05-24T03:54:12.252Z,99687.64
2023-05-24T03:55:12.295Z,99686.93
2023-05-24T03:56:12.280Z,99690.7
2023-05-24T03:57:12.346Z,99688.39
2023-05-24T03:58:12.529Z,99688.34
2023-05-24T03:59:12.338Z,99685.93
2023-05-24T04:00:12.854Z,99686.7
2023-05-24T04:01:21.987Z,99687.16
2023-05-24T04:02:16.314Z,99688.78
2023-05-24T04:03:16.340Z,99690.36
2023-05-24T04:04:16.441Z,99687.86
2023-05-24T04:05:16.385Z,99688.24
2023-05-24T04:06:17.666Z,99691.27
2023-05-24T04:07:16.629Z,99691.56
2023-05-24T04:08:16.590Z,99691.25
2023-05-24T04:09:16.542Z,99687.49
2023-05-24T04:10:16.453Z,99688.3
2023-05-24T04:11:16.430Z,99690.8
2023-05-24T04:12:16.497Z,99688.47
2023-05-24T04:13:16.503Z,99688.84
2023-05-24T04:14:16.662Z,99686.75
2023-05-24T04:15:16.942Z,99689.02
2023-05-24T04:16:16.893Z,99685.39
2023-05-24T04:17:16.576Z,99686.8
2023-05-24T04:18:16.855Z,99691.88
2023-05-24T04:19:16.563Z,99690.83
2023-05-24T04:20:16.651Z,99692.53
2023-05-24T04:21:16.643Z,99691.11
2023-05-24T04:22:17.000Z,99690.14
2023-05-24T04:23:16.651Z,99691.05
2023-05-24T04:24:16.732Z,99695.4
2023-05-24T04:25:16.716Z,99697.2
2023-05-24T04:26:16.671Z,99698.08
2023-05-24T04:27:16.828Z,99698.45
2023-05-24T04:28:16.679Z,99700.58
2023-05-24T04:29:16.688Z,99701.77
2023-05-24T04:30:16.980Z,99699.62
2023-05-24T04:31:17.033Z,99698.91
2023-05-24T04:32:16.754Z,99698.44
2023-05-24T04:33:16.783Z,99699.58
2023-05-24T04:34:16.809Z,99699.49
2023-05-24T04:35:16.880Z,99700.01
2023-05-24T04:36:16.878Z,99697
2023-05-24T04:37:16.851Z,99699.45
2023-05-24T04:38:16.905Z,99704.61
2023-05-24T04:39:16.879Z,99702.3
2023-05-24T04:40:16.891Z,99705.65
2023-05-24T04:41:16.925Z,99707.47
2023-05-24T04:42:16.871Z,99707.62
2023-05-24T04:43:16.919Z,99706.75
2023-05-24T04:44:17.518Z,99707.39
2023-05-24T04:45:17.059Z,99708.19
2023-05-24T04:46:17.196Z,99709.12
2023-05-24T04:47:16.989Z,99709.45
2023-05-24T04:48:17.180Z,99708.53
2023-05-24T04:49:17.033Z,99708.34
2023-05-24T04:50:17.112Z,99713.66
2023-05-24T04:51:17.069Z,99709.56
2023-05-24T04:52:17.360Z,99705.19
2023-05-24T04:53:17.222Z,99710.05
2023-05-24T04:54:17.151Z,99710
2023-05-24T04:55:17.245Z,99709.48
2023-05-24T04:56:17.379Z,99711.2
2023-05-24T04:57:17.549Z,99713.28
2023-05-24T04:58:17.208Z,99712.05
2023-05-24T04:59:17.346Z,99717.27
2023-05-24T05:00:17.706Z,99717.12
2023-05-24T05:01:17.316Z,99719.01
2023-05-24T05:02:17.287Z,99721.89
2023-05-24T05:03:17.579Z,99720.47
2023-05-24T05:04:17.978Z,99724.22
2023-05-24T05:05:18.424Z,99722.84
2023-05-24T05:06:18.014Z,99723.78
2023-05-24T05:07:18.048Z,99722.67
2023-05-24T05:08:18.179Z,99723.81
2023-05-24T05:09:18.270Z,99718.31
2023-05-24T05:10:18.072Z,99722.56
2023-05-24T05:11:18.432Z,99724.02
2023-05-24T05:12:18.044Z,99721.3
2023-05-24T05:13:18.081Z,99723.68
2023-05-24T05:14:18.150Z,99744.86
2023-05-24T05:15:18.408Z,99743.17
2023-05-24T05:16:18.242Z,99745.73
2023-05-24T05:17:18.260Z,99745.95
2023-05-24T05:18:18.344Z,99745.41
2023-05-24T05:19:18.292Z,99746.33
2023-05-24T05:20:18.880Z,99741.84
2023-05-24T05:21:18.195Z,99743.91
2023-05-24T05:22:18.269Z,99741.78
2023-05-24T05:23:18.286Z,99748.73
2023-05-24T05:24:18.563Z,99746.77
2023-05-24T05:25:18.468Z,99746.53
2023-05-24T05:26:18.338Z,99744.66
2023-05-24T05:27:19.286Z,99744.98
2023-05-24T05:28:18.518Z,99744.79
2023-05-24T05:29:18.349Z,99743.88
2023-05-24T05:30:18.465Z,99747.32
2023-05-24T05:31:18.475Z,99746.92
2023-05-24T05:32:18.674Z,99747.75
2023-05-24T05:33:19.332Z,99742.8
2023-05-24T05:34:19.231Z,99746.98
2023-05-24T05:35:19.374Z,99744.42
2023-05-24T05:36:19.446Z,99747.55
2023-05-24T05:37:19.278Z,99745.58
2023-05-24T05:38:19.312Z,99745.11
2023-05-24T05:39:19.349Z,99745.72
2023-05-24T05:40:19.576Z,99743.68
2023-05-24T05:41:19.394Z,99748.68
2023-05-24T05:42:19.357Z,99746.52
2023-05-24T05:43:19.374Z,99745.31
2023-05-24T05:44:19.813Z,99747.84
2023-05-24T05:45:19.684Z,99748.41
2023-05-24T05:46:19.507Z,99745.8
2023-05-24T05:47:19.464Z,99741.92
2023-05-24T05:48:19.465Z,99746.14
2023-05-24T05:49:20.063Z,99742.69
2023-05-24T05:50:19.747Z,99742.53
2023-05-24T05:51:19.550Z,99745.97
2023-05-24T05:52:19.576Z,99744.92
2023-05-24T05:53:19.566Z,99750.06
2023-05-24T05:54:19.659Z,99752.94
2023-05-24T05:55:19.894Z,99750.52
2023-05-24T05:56:19.668Z,99750.48
2023-05-24T05:57:19.661Z,99752.17
2023-05-24T05:58:19.642Z,99747.99
2023-05-24T05:59:19.916Z,99744.55
2023-05-24T06:00:20.676Z,99743.5
2023-05-24T06:01:20.313Z,99750.59
2023-05-24T06:02:19.834Z,99748.56
2023-05-24T06:03:19.976Z,99745.8
2023-05-24T06:04:19.774Z,99744.68
2023-05-24T06:05:20.180Z,99751.64
2023-05-24T06:06:19.817Z,99749.62
2023-05-24T06:07:20.054Z,99753.46
2023-05-24T06:08:19.814Z,99753.83
2023-05-24T06:09:19.850Z,99754.44
2023-05-24T06:10:19.940Z,99748.96
2023-05-24T06:11:20.213Z,99743.86
2023-05-24T06:12:20.182Z,99748.29
2023-05-24T06:13:19.948Z,99742.67
2023-05-24T06:14:20.027Z,99747.39
2023-05-24T06:15:20.033Z,99743.34
2023-05-24T06:16:20.477Z,99751.45
2023-05-24T06:17:19.983Z,99750.05
2023-05-24T06:18:19.961Z,99749.16
2023-05-24T06:19:20.407Z,99748.04
2023-05-24T06:20:20.245Z,99751.95
2023-05-24T06:21:20.280Z,99747.76
2023-05-24T06:22:20.392Z,99749.48
2023-05-24T06:23:20.068Z,99751.27
2023-05-24T06:24:20.108Z,99747.2
2023-05-24T06:25:25.523Z,99748.91
2023-05-24T06:26:22.191Z,99748.43
2023-05-24T06:27:22.245Z,99751.14
2023-05-24T06:28:22.266Z,99748.09
2023-05-24T06:29:22.562Z,99748.16
2023-05-24T06:30:22.310Z,99749.25
2023-05-24T06:31:22.761Z,99748.03
2023-05-24T06:32:22.713Z,99751.09
2023-05-24T06:33:22.362Z,99750.01
2023-05-24T06:34:22.347Z,99751.34
2023-05-24T06:35:22.380Z,99751.69
2023-05-24T06:36:22.379Z,99750.43
2023-05-24T06:37:22.469Z,99750.42
2023-05-24T06:38:22.426Z,99754.23
2023-05-24T06:39:22.413Z,99752.65
2023-05-24T06:40:22.543Z,99754.08
2023-05-24T06:41:22.534Z,99751.81
2023-05-24T06:42:23.140Z,99752.59
2023-05-24T06:43:22.514Z,99753.99
2023-05-24T06:44:25.106Z,99751.66
2023-05-24T06:45:22.568Z,99753.28
2023-05-24T06:46:22.618Z,99752.48
2023-05-24T06:47:22.764Z,99753.93
2023-05-24T06:48:22.813Z,99752.69
2023-05-24T06:49:22.660Z,99751.33
2023-05-24T06:50:22.666Z,99755.58
2023-05-24T06:51:22.840Z,99757.59
2023-05-24T06:52:22.887Z,99754.47
2023-05-24T06:53:22.647Z,99750.55
2023-05-24T06:54:22.913Z,99750.16
2023-05-24T06:55:22.864Z,99750.52
2023-05-24T06:56:23.002Z,99753.72
2023-05-24T06:57:22.708Z,99752.53
2023-05-24T06:58:22.790Z,99755.36
2023-05-24T06:59:22.793Z,99751.69
2023-05-24T07:00:23.181Z,99751.48
2023-05-24T07:01:22.937Z,99755.7
2023-05-24T07:02:22.839Z,99757.16
2023-05-24T07:03:23.035Z,99754.53
2023-05-24T07:04:23.913Z,99753.17
2023-05-24T07:05:22.800Z,99753.44
2023-05-24T07:06:22.962Z,99758.23
2023-05-24T07:07:22.918Z,99751.25
2023-05-24T07:08:22.909Z,99758.69
2023-05-24T07:09:22.966Z,99761.58
2023-05-24T07:10:23.086Z,99754.38
2023-05-24T07:11:23.371Z,99754.97
2023-05-24T07:12:23.212Z,99755.03
2023-05-24T07:13:23.012Z,99753.27
2023-05-24T07:14:23.729Z,99751.81
2023-05-24T07:15:23.467Z,99755.34
2023-05-24T07:16:23.133Z,99747.82
2023-05-24T07:17:23.248Z,99748.67
2023-05-24T07:18:23.398Z,99747.12
2023-05-24T07:19:23.199Z,99743.12
2023-05-24T07:20:23.164Z,99748.89
2023-05-24T07:21:23.146Z,99749.58
2023-05-24T07:22:23.184Z,99744.82
2023-05-24T07:23:23.204Z,99749.14
2023-05-24T07:24:23.205Z,99749.3
2023-05-24T07:25:23.192Z,99751.42
2023-05-24T07:26:23.203Z,99749.37
2023-05-24T07:27:23.424Z,99749.27
2023-05-24T07:28:23.217Z,99752.58
2023-05-24T07:29:23.798Z,99754.54
2023-05-24T07:30:31.628Z,99751.05
2023-05-24T07:31:24.502Z,99750.2
2023-05-24T07:32:24.808Z,99749.5
2023-05-24T07:33:24.398Z,99757.91
2023-05-24T07:34:24.254Z,99752.69
2023-05-24T07:35:24.262Z,99754.09
2023-05-24T07:36:24.257Z,99748.17
2023-05-24T07:37:24.376Z,99750.56
2023-05-24T07:38:24.329Z,99749.51
2023-05-24T07:39:25.017Z,99747.82
2023-05-24T07:40:24.361Z,99750.92
2023-05-24T07:41:25.832Z,99748.56
2023-05-24T07:42:24.564Z,99752
2023-05-24T07:43:24.358Z,99748.46
2023-05-24T07:44:24.419Z,99745.2
2023-05-24T07:45:24.795Z,99748.66
2023-05-24T07:46:24.408Z,99746.61
2023-05-24T07:47:24.548Z,99749.45
2023-05-24T07:48:24.484Z,99745.12
2023-05-24T07:49:24.823Z,99748.69
2023-05-24T07:50:24.534Z,99745.33
2023-05-24T07:51:24.583Z,99745.44
2023-05-24T07:52:24.701Z,99748.09
2023-05-24T07:53:24.534Z,99747.44
2023-05-24T07:54:24.528Z,99749.39
2023-05-24T07:55:25.137Z,99748.92
2023-05-24T07:56:24.629Z,99750.01
2023-05-24T07:57:24.572Z,99748.95
2023-05-24T07:58:24.613Z,99747.8
2023-05-24T07:59:24.667Z,99752.09
2023-05-24T08:00:29.208Z,99747.26
2023-05-24T08:01:25.976Z,99744.32
2023-05-24T08:02:26.316Z,99745.2
2023-05-24T08:03:26.228Z,99745.89
2023-05-24T08:04:26.095Z,99745.68
2023-05-24T08:05:25.997Z,99743.78
2023-05-24T08:06:26.219Z,99744.6
2023-05-24T08:07:26.916Z,99749.62
2023-05-24T08:08:26.024Z,99749.34
2023-05-24T08:09:26.058Z,99749.02
2023-05-24T08:10:26.087Z,99744.52
2023-05-24T08:11:26.113Z,99745.1
2023-05-24T08:12:26.356Z,99745.7
2023-05-24T08:13:26.367Z,99746.84
2023-05-24T08:14:26.093Z,99748.86
2023-05-24T08:15:26.283Z,99748.5
2023-05-24T08:16:26.249Z,99746.12
2023-05-24T08:17:27.038Z,99748.73
2023-05-24T08:18:26.171Z,99750.42
2023-05-24T08:19:26.781Z,99752.2
2023-05-24T08:20:26.497Z,99752.06
2023-05-24T08:21:26.223Z,99748.42
2023-05-24T08:22:26.244Z,99751.23
2023-05-24T08:23:26.394Z,99750.97
2023-05-24T08:24:26.391Z,99748.41
2023-05-24T08:25:26.667Z,99751.8
2023-05-24T08:26:26.267Z,99752.92
2023-05-24T08:27:26.633Z,99752.47
2023-05-24T08:28:27.496Z,99747.69
2023-05-24T08:29:26.814Z,99749.82
2023-05-24T08:30:27.005Z,99746.27
2023-05-24T08:31:27.028Z,99747.14
2023-05-24T08:32:27.217Z,99747.89
2023-05-24T08:33:26.842Z,99746.61
2023-05-24T08:34:27.053Z,99747.91
2023-05-24T08:35:26.944Z,99748.17
2023-05-24T08:36:26.930Z,99746.32
2023-05-24T08:37:27.135Z,99746.47
2023-05-24T08:38:27.309Z,99744.91
2023-05-24T08:39:27.007Z,99743.47
2023-05-24T08:40:27.160Z,99747.03
2023-05-24T08:41:28.385Z,99748.66
2023-05-24T08:42:28.495Z,99743.05
2023-05-24T08:43:30.727Z,99741.27
2023-05-24T08:44:30.657Z,99741.41
2023-05-24T08:45:30.473Z,99743.88
2023-05-24T08:46:29.907Z,99741.91
2023-05-24T08:47:30.620Z,99740.48
2023-05-24T08:48:29.690Z,99740.7
2023-05-24T08:49:32.143Z,99741.74
2023-05-24T08:50:31.730Z,99741.38
2023-05-24T08:51:30.991Z,99739.96
2023-05-24T08:52:31.212Z,99740.39
2023-05-24T08:53:30.693Z,99737.97
2023-05-24T08:54:30.693Z,99739.53
2023-05-24T08:55:33.605Z,99740.41
2023-05-24T08:56:30.788Z,99735.32
2023-05-24T08:57:33.160Z,99738.31
2023-05-24T08:58:30.647Z,99735.64
2023-05-24T08:59:30.744Z,99743.21
2023-05-24T09:00:30.465Z,99733.78
2023-05-24T09:01:32.302Z,99735.86
2023-05-24T09:02:31.655Z,99738.25
2023-05-24T09:03:31.531Z,99733.88
2023-05-24T09:04:30.745Z,99734.49
2023-05-24T09:05:30.837Z,99732.26
2023-05-24T09:06:31.521Z,99723.65
2023-05-24T09:07:33.133Z,99724.57
2023-05-24T09:08:31.144Z,99729.2
2023-05-24T09:09:32.370Z,99729.28
2023-05-24T09:10:44.934Z,99726.44
2023-05-24T09:11:35.142Z,99724.92
2023-05-24T09:12:38.281Z,99731.76
2023-05-24T09:13:35.765Z,99730.46
2023-05-24T09:14:35.154Z,99732.06
2023-05-24T09:15:35.467Z,99732.12
2023-05-24T09:16:35.431Z,99732.88
2023-05-24T09:17:35.893Z,99727.52
2023-05-24T09:18:35.587Z,99725.77
2023-05-24T09:19:35.658Z,99724.94
2023-05-24T09:20:35.269Z,99724.81
2023-05-24T09:21:35.231Z,99725.03
2023-05-24T09:22:38.759Z,99722.47
2023-05-24T09:23:37.247Z,99727.28
2023-05-24T09:26:39.283Z,99728.05
2023-05-24T09:27:39.422Z,99728.95
2023-05-24T09:28:39.305Z,99730.33
2023-05-24T09:29:39.296Z,99730.09
2023-05-24T09:30:39.282Z,99729.14
2023-05-24T09:31:39.819Z,99733.55
2023-05-24T09:32:39.563Z,99729.31
2023-05-24T09:33:39.571Z,99728.53
2023-05-24T09:34:39.991Z,99731.7
2023-05-24T09:35:41.981Z,99729.5
2023-05-24T09:36:41.147Z,99731.09
2023-05-24T09:37:39.412Z,99726.58
2023-05-24T09:38:39.594Z,99726.89
2023-05-24T09:39:40.254Z,99722.15
2023-05-24T09:40:39.429Z,99724.15
2023-05-24T09:41:43.367Z,99724.27
2023-05-24T09:42:39.760Z,99729.5
2023-05-24T09:44:40.321Z,99724.35
2023-05-24T09:45:47.418Z,99726.53
2023-05-24T09:46:44.195Z,99728.53
2023-05-24T09:47:44.297Z,99728.78
2023-05-24T09:49:48.530Z,99727.95
2023-05-24T09:51:46.209Z,99731.51
2023-05-24T09:52:46.264Z,99727.28
2023-05-24T09:53:46.462Z,99731.53
2023-05-24T09:54:46.476Z,99727.66
2023-05-24T09:55:46.305Z,99732.45
2023-05-24T09:56:46.501Z,99729.63
2023-05-24T09:58:48.588Z,99727.34
2023-05-24T09:59:51.179Z,99726.36
2023-05-24T10:00:48.649Z,99718.66
2023-05-24T10:01:48.249Z,99722.23
2023-05-24T10:02:59.888Z,99720.8
2023-05-24T10:03:54.611Z,99719.55
2023-05-24T10:04:57.365Z,99722.31
2023-05-24T10:05:55.004Z,99721.92
2023-05-24T10:06:54.569Z,99725.34
2023-05-24T10:07:55.330Z,99725.91
2023-05-24T10:08:55.172Z,99732.25
2023-05-24T10:09:54.688Z,99727.3
2023-05-24T10:10:55.204Z,99731.48
2023-05-24T10:11:54.582Z,99727
2023-05-24T10:12:55.736Z,99729.64
2023-05-24T10:13:55.049Z,99724.95
2023-05-24T10:14:54.562Z,99725.72
2023-05-24T10:15:54.675Z,99724.44
2023-05-24T10:16:54.525Z,99725.78
2023-05-24T10:17:55.020Z,99718.56
2023-05-24T10:18:54.508Z,99723.12
2023-05-24T10:19:54.530Z,99717.45
2023-05-24T10:20:55.584Z,99718.31
2023-05-24T10:21:56.142Z,99719.42
2023-05-24T10:23:00.626Z,99723.56
2023-05-24T10:23:59.191Z,99716.82
2023-05-24T10:24:57.747Z,99716.28
2023-05-24T10:26:04.658Z,99718.09
2023-05-24T10:27:04.211Z,99719.41
2023-05-24T10:28:02.982Z,99718.94
2023-05-24T10:29:04.683Z,99718.16
2023-05-24T10:30:11.436Z,99724.01
2023-05-24T10:31:07.823Z,99720.22
2023-05-24T10:32:05.461Z,99723.25
2023-05-24T10:33:06.268Z,99721
2023-05-24T10:34:08.348Z,99717.59
2023-05-24T10:35:06.476Z,99722.48
2023-05-24T10:36:09.331Z,99718.85
2023-05-24T10:37:06.758Z,99722.14
2023-05-24T10:38:07.421Z,99718.67
2023-05-24T10:39:08.335Z,99722.56
2023-05-24T10:40:07.083Z,99719.53
2023-05-24T10:41:06.892Z,99722.14
2023-05-24T10:42:09.559Z,99714.61
2023-05-24T10:43:07.730Z,99714.68
2023-05-24T10:44:10.560Z,99715.41
2023-05-24T10:46:11.051Z,99714.02
2023-05-24T10:47:11.934Z,99716.36
2023-05-24T10:49:15.814Z,99718.56
2023-05-24T10:50:18.792Z,99716.2
2023-05-24T10:52:17.533Z,99711.74
2023-05-24T10:53:22.111Z,99714.92
2023-05-24T10:54:19.299Z,99713.48
2023-05-24T10:55:19.569Z,99716.98
2023-05-24T10:56:21.488Z,99714.42
2023-05-24T10:57:22.766Z,99714.14
2023-05-24T10:58:19.688Z,99714.3
2023-05-24T11:01:33.017Z,99720.28
2023-05-24T11:02:27.667Z,99716.14
2023-05-24T11:03:25.142Z,99717.3
2023-05-24T11:04:25.309Z,99717.06
2023-05-24T11:05:24.984Z,99710.8
2023-05-24T11:07:26.029Z,99717.58
2023-05-24T11:09:29.235Z,99710.1
2023-05-24T11:10:31.996Z,99709.75
2023-05-24T11:11:31.335Z,99706.45
2023-05-24T11:12:30.717Z,99704.85
2023-05-24T11:13:30.109Z,99706.54
2023-05-24T11:14:30.264Z,99705.35
2023-05-24T11:15:29.737Z,99704.02
2023-05-24T11:16:33.237Z,99701.31
2023-05-24T11:17:29.664Z,99701.84
2023-05-24T11:18:29.605Z,99700.32
2023-05-24T11:19:33.974Z,99704.3
2023-05-24T11:20:30.518Z,99702.87
2023-05-24T11:21:31.317Z,99704.64
2023-05-24T11:22:30.431Z,99701.64
2023-05-24T11:23:30.944Z,99700.83
2023-05-24T11:24:30.531Z,99696.48
2023-05-24T11:25:30.309Z,99696.89
2023-05-24T11:26:30.529Z,99694.64
2023-05-24T11:27:31.176Z,99696.38
2023-05-24T11:28:30.639Z,99695.8
2023-05-24T11:29:30.359Z,99697.25
2023-05-24T11:30:30.792Z,99695.73
2023-05-24T11:31:30.422Z,99694.03
2023-05-24T11:32:30.511Z,99694.23
2023-05-24T11:33:30.414Z,99690.08
2023-05-24T11:34:30.774Z,99685.73
2023-05-24T11:35:30.464Z,99690.19
2023-05-24T11:36:30.919Z,99685.59
2023-05-24T11:37:45.108Z,99683.09
2023-05-24T11:38:33.996Z,99682.42
2023-05-24T11:39:33.309Z,99681.53
2023-05-24T11:40:32.613Z,99680.97
2023-05-24T11:41:35.038Z,99683.32
2023-05-24T11:42:33.279Z,99679.08
2023-05-24T11:43:32.651Z,99679.27
2023-05-24T11:44:33.243Z,99674.64
2023-05-24T11:45:32.712Z,99678.53
2023-05-24T11:46:32.958Z,99674.56
2023-05-24T11:47:35.564Z,99677.58
2023-05-24T11:48:32.709Z,99677.78
2023-05-24T11:49:32.781Z,99677.31
2023-05-24T11:50:48.787Z,99676.52
2023-05-24T11:51:36.713Z,99674.31
2023-05-24T11:52:40.352Z,99675.8
2023-05-24T11:53:37.269Z,99675.02
2023-05-24T11:54:37.161Z,99675.95
2023-05-24T11:55:37.067Z,99673.37
2023-05-24T11:56:37.380Z,99671.99
2023-05-24T11:57:37.633Z,99668.38
2023-05-24T11:58:44.270Z,99668.61
2023-05-24T11:59:41.125Z,99670.14
2023-05-24T12:00:42.432Z,99667.42
2023-05-24T12:01:41.264Z,99666.07
2023-05-24T12:02:41.384Z,99669.8
2023-05-24T12:03:41.717Z,99668.67
2023-05-24T12:04:41.135Z,99666.56
2023-05-24T12:05:41.040Z,99669.5
2023-05-24T12:06:44.592Z,99668.23
2023-05-24T12:07:41.313Z,99670.3
2023-05-24T12:08:41.384Z,99669.58
2023-05-24T12:09:41.880Z,99666.7
2023-05-24T12:10:43.179Z,99667.18
2023-05-24T12:11:43.166Z,99666.91
2023-05-24T12:12:46.231Z,99668.05
2023-05-24T12:13:43.461Z,99667.25
2023-05-24T12:14:43.394Z,99665.16
2023-05-24T12:15:43.584Z,99669.61
2023-05-24T12:16:44.412Z,99670.12
2023-05-24T12:17:43.657Z,99670.62
2023-05-24T12:18:55.148Z,99669.52
2023-05-24T12:19:44.189Z,99672.39
2023-05-24T12:20:45.919Z,99668.7
2023-05-24T12:21:44.253Z,99672.62
2023-05-24T12:23:47.299Z,99669.93
2023-05-24T12:24:49.527Z,99669.72
2023-05-24T12:25:45.758Z,99664.12
2023-05-24T12:26:47.943Z,99667.03
2023-05-24T12:27:45.771Z,99663.23